createdAt,value
2023-04-19T00:01:49.528Z,16.07
2023-04-19T00:04:11.281Z,17.23
2023-04-19T00:06:32.850Z,15.93
2023-04-19T00:08:54.298Z,15.70
2023-04-19T00:11:16.229Z,16.57
2023-04-19T00:13:37.681Z,15.17
2023-04-19T00:15:59.229Z,15.63
2023-04-19T00:18:20.946Z,14.97
2023-04-19T00:20:42.925Z,15.03
2023-04-19T00:23:04.434Z,15.17
2023-04-19T00:25:26.014Z,15.17
2023-04-19T00:27:47.456Z,14.17
2023-04-19T00:30:09.232Z,14.47
2023-04-19T00:32:30.935Z,13.70
2023-04-19T00:34:52.367Z,13.90
2023-04-19T00:37:13.872Z,13.13
2023-04-19T00:39:35.676Z,13.30
2023-04-19T00:42:00.067Z,13.07
2023-04-19T00:44:21.591Z,13.07
2023-04-19T00:46:44.031Z,11.97
2023-04-19T00:49:05.946Z,11.80
2023-04-19T00:51:27.832Z,12.33
2023-04-19T00:53:49.615Z,12.47
2023-04-19T00:56:11.714Z,11.23
2023-04-19T00:58:33.570Z,11.00
2023-04-19T01:00:55.185Z,11.27
2023-04-19T01:03:17.088Z,10.17
2023-04-19T01:05:38.702Z,11.07
2023-04-19T01:08:00.292Z,10.77
2023-04-19T01:10:21.836Z,10.07
2023-04-19T01:12:43.276Z,10.43
2023-04-19T01:15:05.345Z,9.63
2023-04-19T01:17:27.462Z,9.80
2023-04-19T01:19:48.926Z,9.43
2023-04-19T01:22:10.552Z,9.60
2023-04-19T01:24:32.121Z,9.77
2023-04-19T01:26:53.642Z,9.47
2023-04-19T01:29:15.831Z,8.73
2023-04-19T01:31:37.329Z,8.83
2023-04-19T01:33:58.854Z,8.97
2023-04-19T01:36:20.395Z,8.63
2023-04-19T01:38:41.827Z,8.57
2023-04-19T01:41:03.348Z,8.10
2023-04-19T01:43:24.904Z,8.57
2023-04-19T01:45:46.433Z,8.50
2023-04-19T01:48:07.998Z,8.10
2023-04-19T01:50:29.537Z,8.00
2023-04-19T01:52:50.977Z,8.00
2023-04-19T01:55:12.740Z,8.60
2023-04-19T01:57:34.232Z,8.40
2023-04-19T01:59:55.674Z,8.00
2023-04-19T02:02:17.307Z,8.53
2023-04-19T02:04:38.837Z,7.67
2023-04-19T02:07:00.297Z,7.80
2023-04-19T02:09:21.737Z,7.67
2023-04-19T02:11:43.205Z,8.27
2023-04-19T02:14:04.714Z,8.13
2023-04-19T02:16:26.239Z,10.57
2023-04-19T02:18:48.196Z,10.10
2023-04-19T02:21:10.950Z,11.27
2023-04-19T02:23:32.608Z,9.60
2023-04-19T02:25:54.063Z,8.47
2023-04-19T02:28:15.610Z,7.90
2023-04-19T02:30:37.231Z,7.93
2023-04-19T02:32:58.897Z,6.97
2023-04-19T02:35:20.592Z,7.47
2023-04-19T02:37:42.031Z,7.90
2023-04-19T02:40:05.526Z,8.17
2023-04-19T02:42:26.965Z,7.43
2023-04-19T02:44:48.414Z,7.60
2023-04-19T02:47:09.844Z,7.40
2023-04-19T02:49:37.990Z,7.20
2023-04-19T02:51:59.445Z,7.57
2023-04-19T02:54:21.133Z,7.20
2023-04-19T02:56:42.566Z,7.50
2023-04-19T02:59:04.708Z,7.17
2023-04-19T03:01:26.641Z,7.07
2023-04-19T03:03:48.223Z,7.40
2023-04-19T03:06:09.836Z,7.90
2023-04-19T03:08:31.266Z,7.17
2023-04-19T03:10:52.850Z,7.60
2023-04-19T03:13:14.282Z,7.30
2023-04-19T03:15:35.770Z,7.10
2023-04-19T03:17:57.277Z,8.17
2023-04-19T03:20:19.189Z,8.80
2023-04-19T03:22:40.717Z,9.60
2023-04-19T03:25:02.306Z,9.27
2023-04-19T03:27:23.769Z,9.23
2023-04-19T03:29:46.677Z,9.30
2023-04-19T03:32:09.830Z,9.10
2023-04-19T03:34:31.308Z,9.10
2023-04-19T03:36:52.782Z,8.60
2023-04-19T03:39:14.296Z,9.00
2023-04-19T03:41:35.727Z,8.40
2023-04-19T03:43:58.287Z,8.13
2023-04-19T03:46:19.793Z,7.03
2023-04-19T03:48:41.308Z,8.00
2023-04-19T03:51:02.801Z,7.37
2023-04-19T03:53:24.288Z,7.10
2023-04-19T03:55:46.011Z,7.07
2023-04-19T03:58:07.436Z,7.37
2023-04-19T04:00:28.866Z,6.63
2023-04-19T04:02:50.800Z,7.17
2023-04-19T04:05:12.628Z,7.00
2023-04-19T04:07:34.123Z,6.40
2023-04-19T04:09:55.612Z,6.33
2023-04-19T04:12:17.096Z,5.80
2023-04-19T04:14:38.546Z,5.87
2023-04-19T04:16:59.998Z,6.23
2023-04-19T04:19:22.079Z,6.03
2023-04-19T04:21:43.537Z,5.93
2023-04-19T04:24:05.446Z,5.30
2023-04-19T04:26:30.785Z,5.47
2023-04-19T04:28:52.239Z,5.67
2023-04-19T04:31:13.708Z,5.33
2023-04-19T04:33:35.932Z,5.10
2023-04-19T04:35:59.193Z,6.00
2023-04-19T04:38:24.761Z,7.67
2023-04-19T04:40:51.506Z,6.10
2023-04-19T04:43:14.123Z,5.30
2023-04-19T04:45:35.596Z,5.33
2023-04-19T04:47:57.078Z,5.70
2023-04-19T04:50:18.559Z,5.40
2023-04-19T04:52:39.993Z,6.20
2023-04-19T04:55:01.466Z,5.23
2023-04-19T04:57:22.940Z,5.73
2023-04-19T04:59:45.182Z,5.80
2023-04-19T05:02:06.718Z,7.37
2023-04-19T05:04:28.325Z,6.43
2023-04-19T05:06:49.790Z,5.97
2023-04-19T05:09:11.825Z,6.30
2023-04-19T05:11:33.758Z,5.73
2023-04-19T05:13:55.274Z,6.90
2023-04-19T05:16:16.738Z,6.00
2023-04-19T05:18:38.186Z,6.40
2023-04-19T05:20:59.683Z,6.30
2023-04-19T05:23:21.324Z,6.57
2023-04-19T05:25:42.862Z,7.00
2023-04-19T05:28:04.588Z,6.43
2023-04-19T05:30:26.068Z,6.17
2023-04-19T05:32:47.713Z,6.53
2023-04-19T05:35:09.771Z,6.90
2023-04-19T05:37:31.326Z,5.87
2023-04-19T05:39:52.857Z,7.07
2023-04-19T05:42:14.365Z,6.53
2023-04-19T05:44:35.850Z,6.70
2023-04-19T05:46:57.344Z,6.40
2023-04-19T05:49:18.884Z,7.23
2023-04-19T05:51:40.405Z,6.73
2023-04-19T05:54:02.006Z,7.10
2023-04-19T05:56:23.542Z,6.37
2023-04-19T05:58:45.072Z,6.47
2023-04-19T06:01:07.009Z,6.60
2023-04-19T06:03:31.215Z,6.90
2023-04-19T06:05:53.995Z,6.40
2023-04-19T06:08:16.953Z,6.13
2023-04-19T06:10:54.055Z,6.23
2023-04-19T06:13:18.399Z,6.10
2023-04-19T06:15:40.249Z,6.57
2023-04-19T06:18:01.760Z,6.73
2023-04-19T06:20:23.283Z,6.40
2023-04-19T06:22:46.012Z,6.33
2023-04-19T06:25:07.997Z,7.17
2023-04-19T06:27:29.468Z,7.27
2023-04-19T06:29:51.329Z,5.77
2023-04-19T06:32:12.935Z,7.37
2023-04-19T06:34:34.575Z,8.30
2023-04-19T06:36:56.016Z,8.70
2023-04-19T06:39:17.956Z,8.00
2023-04-19T06:41:39.404Z,7.30
2023-04-19T06:44:00.849Z,6.47
2023-04-19T06:46:22.356Z,6.13
2023-04-19T06:48:43.885Z,7.00
2023-04-19T06:51:05.672Z,6.70
2023-04-19T06:53:27.492Z,6.53
2023-04-19T06:55:49.032Z,6.90
2023-04-19T06:58:10.971Z,6.40
2023-04-19T07:00:32.464Z,6.73
2023-04-19T07:02:54.302Z,6.60
2023-04-19T07:05:15.967Z,6.27
2023-04-19T07:07:38.281Z,6.30
2023-04-19T07:09:59.812Z,6.50
2023-04-19T07:12:21.351Z,6.47
2023-04-19T07:14:42.846Z,7.10
2023-04-19T07:17:05.551Z,5.97
2023-04-19T07:19:28.238Z,6.13
2023-04-19T07:21:50.548Z,6.43
2023-04-19T07:24:12.021Z,6.03
2023-04-19T07:26:34.388Z,5.80
2023-04-19T07:28:56.971Z,5.13
2023-04-19T07:31:19.067Z,4.60
2023-04-19T07:33:40.613Z,4.17
2023-04-19T07:36:02.070Z,4.33
2023-04-19T07:38:24.903Z,3.90
2023-04-19T07:40:46.500Z,3.93
2023-04-19T07:43:07.980Z,3.97
2023-04-19T07:45:30.803Z,3.53
2023-04-19T07:47:52.334Z,4.03
2023-04-19T07:50:13.843Z,3.73
2023-04-19T07:52:35.316Z,4.23
2023-04-19T07:54:57.030Z,4.20
2023-04-19T07:57:18.511Z,4.00
2023-04-19T07:59:39.991Z,4.50
2023-04-19T08:02:01.524Z,4.53
2023-04-19T08:04:23.338Z,4.23
2023-04-19T08:06:45.707Z,4.20
2023-04-19T08:09:07.237Z,3.80
2023-04-19T08:11:28.704Z,2.60
2023-04-19T08:14:04.057Z,2.53
2023-04-19T08:17:09.131Z,2.43
2023-04-19T08:19:12.464Z,2.60
2023-04-19T08:21:40.511Z,2.77
2023-04-19T08:24:02.890Z,2.60
2023-04-19T08:26:26.752Z,2.60
2023-04-19T08:28:49.860Z,2.60
2023-04-19T08:31:11.361Z,2.40
2023-04-19T08:33:32.908Z,2.27
2023-04-19T08:35:54.359Z,4.00
2023-04-19T08:38:15.932Z,6.87
2023-04-19T08:40:45.531Z,3.90
2023-04-19T08:43:07.473Z,5.90
2023-04-19T08:45:29.700Z,2.97
2023-04-19T08:48:00.850Z,6.97
2023-04-19T08:50:32.161Z,4.33
2023-04-19T08:53:05.647Z,3.70
2023-04-19T08:56:03.322Z,2.40
2023-04-19T09:00:54.727Z,3.90
2023-04-19T09:03:16.366Z,7.20
2023-04-19T09:05:38.628Z,11.87
2023-04-19T09:08:29.144Z,3.17
2023-04-19T09:11:01.803Z,3.87
2023-04-19T09:13:23.618Z,3.13
2023-04-19T09:15:45.267Z,3.20
2023-04-19T09:18:09.962Z,2.73
2023-04-19T09:20:38.365Z,2.80
2023-04-19T09:23:07.832Z,2.57
2023-04-19T09:25:52.351Z,2.30
2023-04-19T09:28:12.393Z,2.33
2023-04-19T09:30:40.234Z,2.17
2023-04-19T09:33:05.622Z,2.40
2023-04-19T09:35:49.565Z,2.00
2023-04-19T09:38:11.954Z,2.27
2023-04-19T09:40:33.717Z,2.30
2023-04-19T09:43:08.886Z,2.20
2023-04-19T09:45:41.208Z,2.07
2023-04-19T09:48:04.845Z,2.00
2023-04-19T09:50:27.664Z,2.20
2023-04-19T09:52:50.278Z,2.10
2023-04-19T09:55:25.400Z,2.30
2023-04-19T09:57:48.783Z,1.90
2023-04-19T10:00:13.406Z,2.50
2023-04-19T10:02:36.141Z,2.37
2023-04-19T10:05:16.332Z,2.70
2023-04-19T10:07:40.084Z,2.50
2023-04-19T10:10:16.035Z,2.40
2023-04-19T10:13:03.928Z,2.23
2023-04-19T10:15:23.786Z,2.00
2023-04-19T10:17:45.630Z,2.40
2023-04-19T10:20:12.158Z,2.43
2023-04-19T10:22:36.330Z,2.20
2023-04-19T10:25:13.246Z,2.13
2023-04-19T10:27:34.947Z,2.33
2023-04-19T10:30:07.035Z,2.00
2023-04-19T10:32:37.004Z,2.27
2023-04-19T10:35:04.705Z,2.30
2023-04-19T10:37:26.473Z,2.13
2023-04-19T10:39:47.967Z,2.20
2023-04-19T10:42:09.624Z,2.10
2023-04-19T10:44:31.112Z,2.23
2023-04-19T10:46:52.576Z,2.40
2023-04-19T10:49:14.118Z,2.43
2023-04-19T10:51:38.734Z,2.63
2023-04-19T10:54:05.367Z,2.40
2023-04-19T10:56:32.625Z,2.40
2023-04-19T10:59:07.711Z,2.10
2023-04-19T11:01:45.898Z,2.20
2023-04-19T11:04:08.798Z,2.77
2023-04-19T11:06:30.980Z,2.30
2023-04-19T11:08:52.975Z,2.50
2023-04-19T11:11:15.540Z,2.47
2023-04-19T11:13:37.299Z,2.73
2023-04-19T11:15:59.414Z,2.60
2023-04-19T11:18:20.938Z,2.47
2023-04-19T11:20:43.316Z,2.70
2023-04-19T11:23:16.572Z,2.67
2023-04-19T11:25:38.028Z,2.23
2023-04-19T11:28:00.425Z,2.30
2023-04-19T11:30:30.450Z,2.20
2023-04-19T11:32:53.716Z,2.80
2023-04-19T11:35:15.893Z,2.70
2023-04-19T11:37:39.385Z,2.10
2023-04-19T11:40:02.798Z,2.47
2023-04-19T11:42:26.286Z,2.57
2023-04-19T11:44:51.977Z,2.43
2023-04-19T11:47:13.494Z,2.60
2023-04-19T11:49:34.952Z,2.45
2023-04-19T11:52:02.443Z,2.30
2023-04-19T11:54:26.897Z,2.50
2023-04-19T11:57:05.705Z,2.90
2023-04-19T11:59:27.632Z,2.40
2023-04-19T12:01:49.056Z,2.70
2023-04-19T12:04:11.619Z,2.88
2023-04-19T12:06:33.372Z,2.70
2023-04-19T12:08:56.432Z,2.58
2023-04-19T12:11:19.837Z,2.33
2023-04-19T12:13:41.687Z,2.28
2023-04-19T12:16:03.595Z,2.70
2023-04-19T12:18:25.530Z,2.85
2023-04-19T12:20:50.259Z,2.70
2023-04-19T12:23:13.974Z,3.08
2023-04-19T12:25:35.602Z,3.10
2023-04-19T12:27:57.637Z,2.90
2023-04-19T12:30:19.139Z,2.70
2023-04-19T12:32:40.608Z,3.00
2023-04-19T12:35:02.120Z,3.10
2023-04-19T12:37:23.551Z,3.35
2023-04-19T12:39:45.029Z,3.85
2023-04-19T12:42:06.642Z,3.28
2023-04-19T12:44:28.147Z,3.45
2023-04-19T12:46:49.798Z,3.78
2023-04-19T12:49:11.284Z,3.50
2023-04-19T12:51:33.040Z,2.90
2023-04-19T12:53:54.681Z,3.00
2023-04-19T12:56:17.293Z,2.60
2023-04-19T12:58:38.805Z,3.17
2023-04-19T13:01:00.473Z,2.92
2023-04-19T13:03:22.113Z,2.90
2023-04-19T13:05:43.736Z,2.78
2023-04-19T13:08:05.868Z,3.10
2023-04-19T13:10:27.376Z,2.97
2023-04-19T13:12:48.880Z,2.90
2023-04-19T13:15:10.820Z,2.95
2023-04-19T13:17:32.497Z,2.75
2023-04-19T13:19:53.968Z,3.10
2023-04-19T13:22:15.702Z,3.20
2023-04-19T13:24:37.216Z,3.03
2023-04-19T13:26:58.706Z,2.75
2023-04-19T13:29:20.333Z,2.90
2023-04-19T13:31:43.680Z,2.72
2023-04-19T13:34:05.572Z,2.92
2023-04-19T13:36:28.182Z,2.78
2023-04-19T13:38:49.678Z,2.95
2023-04-19T13:41:11.631Z,2.90
2023-04-19T13:43:33.112Z,2.83
2023-04-19T13:45:54.586Z,2.70
2023-04-19T13:48:16.212Z,2.85
2023-04-19T13:50:37.804Z,2.70
2023-04-19T13:52:59.372Z,2.92
2023-04-19T13:55:20.898Z,2.78
2023-04-19T13:57:42.749Z,3.13
2023-04-19T14:00:04.900Z,3.28
2023-04-19T14:02:26.626Z,2.70
2023-04-19T14:04:48.345Z,3.50
2023-04-19T14:07:09.963Z,3.25
2023-04-19T14:09:31.626Z,3.10
2023-04-19T14:11:53.271Z,3.03
2023-04-19T14:14:15.567Z,3.78
2023-04-19T14:16:37.289Z,3.03
2023-04-19T14:18:58.874Z,2.70
2023-04-19T14:21:20.465Z,2.70
2023-04-19T14:23:41.937Z,2.38
2023-04-19T14:26:03.498Z,2.63
2023-04-19T14:28:25.002Z,3.40
2023-04-19T14:30:46.465Z,4.10
2023-04-19T14:33:07.948Z,2.83
2023-04-19T14:35:30.175Z,2.47
2023-04-19T14:37:51.714Z,2.42
2023-04-19T14:40:13.250Z,2.97
2023-04-19T14:42:34.758Z,2.75
2023-04-19T14:44:58.038Z,2.40
2023-04-19T14:47:20.858Z,2.50
2023-04-19T14:49:42.369Z,2.65
2023-04-19T14:52:04.630Z,2.50
2023-04-19T14:54:26.128Z,2.35
2023-04-19T14:56:47.620Z,2.65
2023-04-19T14:59:09.155Z,2.35
2023-04-19T15:01:30.592Z,2.20
2023-04-19T15:03:52.255Z,2.60
2023-04-19T15:06:13.902Z,2.63
2023-04-19T15:08:35.573Z,3.10
2023-04-19T15:10:57.145Z,2.55
2023-04-19T15:13:18.595Z,2.35
2023-04-19T15:15:40.092Z,3.05
2023-04-19T15:18:01.873Z,3.20
2023-04-19T15:20:23.400Z,2.70
2023-04-19T15:22:45.013Z,2.72
2023-04-19T15:25:06.581Z,3.10
2023-04-19T15:27:28.332Z,4.28
2023-04-19T15:29:49.795Z,5.68
2023-04-19T15:32:11.236Z,12.55
2023-04-19T15:34:32.689Z,9.32
2023-04-19T15:36:54.248Z,5.95
2023-04-19T15:39:15.980Z,20.42
2023-04-19T15:41:37.653Z,5.75
2023-04-19T15:43:59.208Z,3.28
2023-04-19T15:46:20.698Z,11.63
2023-04-19T15:48:44.697Z,5.65
2023-04-19T15:51:07.042Z,6.10
2023-04-19T15:53:28.705Z,5.05
2023-04-19T15:55:50.249Z,5.07
2023-04-19T15:58:11.905Z,3.92
2023-04-19T16:00:33.448Z,4.00
2023-04-19T16:02:56.057Z,3.95
2023-04-19T16:05:17.675Z,5.47
2023-04-19T16:07:39.166Z,4.03
2023-04-19T16:10:00.618Z,4.95
2023-04-19T16:12:22.128Z,3.50
2023-04-19T16:14:43.554Z,4.85
2023-04-19T16:17:05.051Z,3.20
2023-04-19T16:19:26.480Z,6.38
2023-04-19T16:21:47.969Z,4.18
2023-04-19T16:24:09.432Z,3.63
2023-04-19T16:26:30.936Z,3.85
2023-04-19T16:28:52.782Z,4.05
2023-04-19T16:31:14.390Z,5.07
2023-04-19T16:33:35.867Z,9.43
2023-04-19T16:35:57.356Z,4.90
2023-04-19T16:38:18.857Z,9.52
2023-04-19T16:40:40.512Z,5.93
2023-04-19T16:43:01.967Z,7.78
2023-04-19T16:45:23.557Z,4.38
2023-04-19T16:47:46.182Z,8.13
2023-04-19T16:50:08.242Z,5.90
2023-04-19T16:52:32.043Z,8.10
2023-04-19T16:54:54.034Z,6.33
2023-04-19T16:57:15.571Z,4.90
2023-04-19T16:59:37.246Z,4.53
2023-04-19T17:02:01.465Z,4.18
2023-04-19T17:04:24.085Z,4.22
2023-04-19T17:06:45.689Z,3.45
2023-04-19T17:09:07.797Z,3.70
2023-04-19T17:11:32.219Z,3.88
2023-04-19T17:13:55.293Z,4.25
2023-04-19T17:16:18.170Z,3.20
2023-04-19T17:18:39.642Z,3.70
2023-04-19T17:21:01.098Z,3.30
2023-04-19T17:23:22.675Z,4.43
2023-04-19T17:25:44.176Z,6.20
2023-04-19T17:28:06.012Z,5.50
2023-04-19T17:30:28.261Z,4.00
2023-04-19T17:32:49.947Z,3.93
2023-04-19T17:35:11.541Z,4.07
2023-04-19T17:37:33.072Z,4.50
2023-04-19T17:39:54.580Z,3.83
2023-04-19T17:42:16.210Z,4.37
2023-04-19T17:44:37.695Z,4.70
2023-04-19T17:46:59.329Z,4.47
2023-04-19T17:49:21.807Z,5.07
2023-04-19T17:51:43.487Z,4.90
2023-04-19T17:54:04.991Z,5.30
2023-04-19T17:56:26.836Z,4.57
2023-04-19T17:58:48.292Z,7.77
2023-04-19T18:01:10.489Z,6.10
2023-04-19T18:03:32.754Z,4.90
2023-04-19T18:05:54.256Z,4.77
2023-04-19T18:08:15.824Z,4.83
2023-04-19T18:10:37.301Z,5.80
2023-04-19T18:12:58.868Z,5.33
2023-04-19T18:15:20.316Z,5.10
2023-04-19T18:17:41.886Z,5.37
2023-04-19T18:20:05.455Z,5.83
2023-04-19T18:22:26.980Z,7.73
2023-04-19T18:24:51.123Z,6.83
2023-04-19T18:27:13.004Z,6.10
2023-04-19T18:29:34.459Z,6.10
2023-04-19T18:31:56.006Z,6.30
2023-04-19T18:34:17.517Z,5.50
2023-04-19T18:36:39.001Z,4.70
2023-04-19T18:39:00.573Z,4.73
2023-04-19T18:41:22.079Z,4.83
2023-04-19T18:43:54.461Z,4.50
2023-04-19T18:46:25.075Z,4.93
2023-04-19T18:48:46.922Z,6.30
2023-04-19T18:51:09.270Z,6.73
2023-04-19T18:53:31.564Z,4.87
2023-04-19T18:55:57.638Z,7.60
2023-04-19T18:58:19.136Z,6.97
2023-04-19T19:00:40.689Z,7.73
2023-04-19T19:03:03.357Z,6.57
2023-04-19T19:05:25.830Z,7.23
2023-04-19T19:07:47.585Z,7.23
2023-04-19T19:10:19.311Z,6.60
2023-04-19T19:12:43.496Z,6.80
2023-04-19T19:15:05.789Z,6.27
2023-04-19T19:17:28.284Z,4.93
2023-04-19T19:19:50.068Z,5.27
2023-04-19T19:22:25.213Z,4.70
2023-04-19T19:24:48.771Z,4.80
2023-04-19T19:27:10.233Z,4.87
2023-04-19T19:29:36.323Z,4.97
2023-04-19T19:31:58.095Z,4.97
2023-04-19T19:34:27.589Z,5.00
2023-04-19T19:36:51.851Z,4.43
2023-04-19T19:39:13.333Z,5.57
2023-04-19T19:43:59.129Z,6.20
2023-04-19T19:46:22.688Z,3.90
2023-04-19T19:48:44.669Z,3.67
2023-04-19T19:51:28.631Z,4.30
2023-04-19T19:53:47.562Z,4.63
2023-04-19T19:56:18.310Z,4.30
2023-04-19T19:58:50.258Z,4.40
2023-04-19T20:01:13.270Z,4.07
2023-04-19T20:03:37.646Z,4.50
2023-04-19T20:05:59.926Z,3.60
2023-04-19T20:08:21.455Z,3.60
2023-04-19T20:10:43.121Z,3.93
2023-04-19T20:13:06.553Z,4.33
2023-04-19T20:15:28.504Z,4.40
2023-04-19T20:17:50.118Z,4.77
2023-04-19T20:20:12.170Z,3.90
2023-04-19T20:22:33.631Z,4.10
2023-04-19T20:24:55.089Z,4.13
2023-04-19T20:27:16.517Z,4.00
2023-04-19T20:29:38.303Z,4.10
2023-04-19T20:31:59.810Z,4.63
2023-04-19T20:34:21.427Z,4.23
2023-04-19T20:36:46.587Z,3.67
2023-04-19T20:39:13.060Z,4.57
2023-04-19T20:41:34.829Z,3.90
2023-04-19T20:43:57.173Z,4.13
2023-04-19T20:46:18.775Z,4.10
2023-04-19T20:48:40.352Z,4.10
2023-04-19T20:51:01.797Z,4.30
2023-04-19T20:53:23.355Z,4.13
2023-04-19T20:55:44.929Z,4.10
2023-04-19T20:58:06.475Z,3.93
2023-04-19T21:00:28.249Z,3.87
2023-04-19T21:02:49.877Z,4.10
2023-04-19T21:05:11.683Z,4.20
2023-04-19T21:07:33.600Z,4.00
2023-04-19T21:09:55.188Z,3.77
2023-04-19T21:12:17.483Z,4.00
2023-04-19T21:14:39.026Z,4.07
2023-04-19T21:17:01.841Z,4.13
2023-04-19T21:19:23.312Z,4.03
2023-04-19T21:21:44.751Z,4.40
2023-04-19T21:24:07.590Z,4.20
2023-04-19T21:26:29.068Z,4.13
2023-04-19T21:28:51.987Z,4.00
2023-04-19T21:31:13.518Z,3.90
2023-04-19T21:33:35.032Z,4.00
2023-04-19T21:35:56.463Z,4.23
2023-04-19T21:38:17.972Z,4.10
2023-04-19T21:40:39.481Z,4.00
2023-04-19T21:43:00.999Z,4.40
2023-04-19T21:45:22.515Z,4.40
2023-04-19T21:47:44.129Z,4.23
2023-04-19T21:50:06.220Z,4.17
2023-04-19T21:52:27.668Z,4.23
2023-04-19T21:54:49.145Z,4.30
2023-04-19T21:57:11.192Z,4.50
2023-04-19T21:59:35.537Z,4.90
2023-04-19T22:01:58.178Z,4.50
2023-04-19T22:04:20.013Z,4.63
2023-04-19T22:06:44.049Z,4.70
2023-04-19T22:09:05.826Z,4.67
2023-04-19T22:11:29.040Z,4.60
2023-04-19T22:13:51.342Z,4.50
2023-04-19T22:16:13.014Z,4.67
2023-04-19T22:18:35.794Z,4.30
2023-04-19T22:20:57.244Z,4.67
2023-04-19T22:23:18.816Z,4.73
2023-04-19T22:25:40.751Z,4.83
2023-04-19T22:28:02.206Z,4.70
2023-04-19T22:30:23.764Z,4.83
2023-04-19T22:32:45.319Z,4.87
2023-04-19T22:35:07.583Z,5.10
2023-04-19T22:37:29.054Z,4.73
2023-04-19T22:39:50.495Z,4.70
2023-04-19T22:42:12.080Z,4.60
2023-04-19T22:44:33.552Z,4.70
2023-04-19T22:46:55.066Z,4.70
2023-04-19T22:49:16.731Z,4.40
2023-04-19T22:51:38.509Z,4.93
2023-04-19T22:53:59.997Z,4.57
2023-04-19T22:56:21.530Z,5.17
2023-04-19T22:58:42.981Z,4.53
2023-04-19T23:01:04.570Z,4.23
2023-04-19T23:03:26.145Z,5.20
2023-04-19T23:05:47.796Z,5.30
2023-04-19T23:08:09.518Z,5.10
2023-04-19T23:10:31.783Z,5.27
2023-04-19T23:12:57.329Z,4.83
2023-04-19T23:15:18.807Z,5.27
2023-04-19T23:17:40.463Z,5.03
2023-04-19T23:20:02.017Z,5.33
2023-04-19T23:22:23.534Z,5.27
2023-04-19T23:24:44.961Z,5.30
2023-04-19T23:27:06.727Z,4.63
2023-04-19T23:29:28.184Z,5.07
2023-04-19T23:31:49.726Z,4.83
2023-04-19T23:34:11.534Z,5.20
2023-04-19T23:36:32.987Z,5.03
2023-04-19T23:38:54.414Z,4.77
2023-04-19T23:41:15.854Z,4.80
2023-04-19T23:43:37.318Z,4.80
2023-04-19T23:45:58.776Z,4.97
2023-04-19T23:48:20.378Z,5.13
2023-04-19T23:50:41.799Z,4.27
2023-04-19T23:53:04.471Z,4.47
2023-04-19T23:55:25.995Z,5.30
2023-04-19T23:57:47.485Z,4.73
